createdAt,value
2023-03-12T22:43:13.435Z,622.64
2023-03-12T22:44:13.401Z,622.74
2023-03-12T22:45:13.401Z,622.81
2023-03-12T22:46:13.447Z,622.86
2023-03-12T22:47:13.359Z,622.89
2023-03-12T22:48:13.406Z,622.98
2023-03-12T22:49:13.370Z,622.95
2023-03-12T22:50:13.333Z,622.93
2023-03-12T22:51:13.319Z,622.97
2023-03-12T22:52:13.312Z,622.98
2023-03-12T22:53:13.281Z,622.96
2023-03-12T22:54:13.282Z,622.98
2023-03-12T22:55:13.267Z,622.98
2023-03-12T22:56:13.274Z,622.97
2023-03-12T22:57:13.244Z,622.98
2023-03-12T22:58:13.249Z,622.97
2023-03-12T22:59:13.273Z,622.96
2023-03-12T23:00:13.231Z,622.96
2023-03-12T23:01:13.218Z,622.95
2023-03-12T23:02:13.214Z,622.91
2023-03-12T23:03:13.172Z,622.96
2023-03-12T23:04:13.232Z,622.98
2023-03-12T23:05:13.151Z,622.97
2023-03-12T23:06:13.159Z,622.98
2023-03-12T23:07:15.282Z,622.99
2023-03-12T23:08:13.138Z,622.99
2023-03-12T23:09:13.106Z,622.95
2023-03-12T23:10:13.116Z,622.97
2023-03-12T23:11:13.088Z,622.97
2023-03-12T23:12:13.858Z,622.92
2023-03-12T23:13:13.107Z,622.90
2023-03-12T23:14:13.064Z,622.97
2023-03-12T23:15:13.071Z,622.95
2023-03-12T23:16:13.090Z,622.95
2023-03-12T23:17:13.021Z,622.90
2023-03-12T23:18:13.032Z,622.91
2023-03-12T23:19:13.053Z,622.94
2023-03-12T23:20:13.000Z,622.97
2023-03-12T23:21:12.974Z,622.95
2023-03-12T23:22:12.964Z,622.92
2023-03-12T23:23:12.969Z,622.92
2023-03-12T23:24:12.970Z,622.95
2023-03-12T23:25:12.927Z,622.90
2023-03-12T23:26:12.921Z,622.94
2023-03-12T23:27:12.934Z,622.97
2023-03-12T23:28:12.901Z,622.96
2023-03-12T23:29:12.902Z,622.96
2023-03-12T23:30:12.886Z,622.99
2023-03-12T23:31:13.011Z,623.00
2023-03-12T23:32:12.893Z,623.00
2023-03-12T23:33:12.850Z,622.93
2023-03-12T23:34:12.837Z,622.91
2023-03-12T23:35:12.831Z,622.93
2023-03-12T23:36:12.829Z,622.92
2023-03-12T23:37:12.807Z,622.95
2023-03-12T23:38:12.790Z,622.98
2023-03-12T23:39:12.784Z,622.97
2023-03-12T23:40:12.793Z,623.00
2023-03-12T23:41:12.793Z,623.01
2023-03-12T23:42:12.746Z,623.01
2023-03-12T23:43:12.749Z,623.01
2023-03-12T23:44:12.728Z,623.02
2023-03-12T23:45:12.733Z,623.02
2023-03-12T23:46:12.811Z,623.01
2023-03-12T23:47:12.718Z,623.01
2023-03-12T23:48:12.705Z,622.98
2023-03-12T23:49:12.741Z,622.98
2023-03-12T23:50:12.659Z,623.00
2023-03-12T23:51:12.660Z,623.01
2023-03-12T23:52:12.642Z,623.04
2023-03-12T23:53:12.624Z,622.99
2023-03-12T23:54:12.613Z,623.01
2023-03-12T23:55:12.622Z,623.01
2023-03-12T23:56:12.611Z,623.02
2023-03-12T23:57:12.588Z,623.01
2023-03-12T23:58:12.580Z,622.99
2023-03-12T23:59:12.582Z,622.99
